createdAt,value
2023-08-27T00:01:19.622Z,14.40
2023-08-27T00:03:46.778Z,17.00
2023-08-27T00:06:13.870Z,17.90
2023-08-27T00:08:40.871Z,18.40
2023-08-27T00:11:07.846Z,14.60
2023-08-27T00:13:34.959Z,11.40
2023-08-27T00:16:02.025Z,11.30
2023-08-27T00:18:29.171Z,10.30
2023-08-27T00:20:57.339Z,8.70
2023-08-27T00:23:24.844Z,9.10
2023-08-27T00:25:52.050Z,10.20
2023-08-27T00:28:19.002Z,13.60
2023-08-27T00:30:46.178Z,14.60
2023-08-27T00:33:13.258Z,13.00
2023-08-27T00:35:40.332Z,13.30
2023-08-27T00:38:07.584Z,9.10
2023-08-27T00:40:35.695Z,9.90
2023-08-27T00:43:03.767Z,10.40
2023-08-27T00:45:31.525Z,10.70
2023-08-27T00:47:58.757Z,10.50
2023-08-27T00:50:26.866Z,10.70
2023-08-27T00:52:54.477Z,10.70
2023-08-27T00:55:21.511Z,8.80
2023-08-27T00:57:48.513Z,9.80
2023-08-27T01:00:15.761Z,8.90
2023-08-27T01:02:43.976Z,9.90
2023-08-27T01:05:13.449Z,10.80
2023-08-27T01:08:21.821Z,10.40
2023-08-27T01:11:06.494Z,10.50
2023-08-27T01:13:48.867Z,8.40
2023-08-27T01:16:15.936Z,8.90
2023-08-27T01:18:42.988Z,10.50
2023-08-27T01:21:20.202Z,10.80
2023-08-27T01:23:47.250Z,10.40
2023-08-27T01:26:18.871Z,10.10
2023-08-27T01:28:47.394Z,10.90
2023-08-27T01:31:18.610Z,9.30
2023-08-27T01:33:46.423Z,12.10
2023-08-27T01:36:13.515Z,12.40
2023-08-27T01:38:40.901Z,14.50
2023-08-27T01:41:08.034Z,13.80
2023-08-27T01:43:35.147Z,13.40
2023-08-27T01:46:02.140Z,12.80
2023-08-27T01:48:29.453Z,9.60
2023-08-27T01:50:56.500Z,9.50
2023-08-27T01:53:23.573Z,10.40
2023-08-27T01:55:50.510Z,10.70
2023-08-27T01:58:17.558Z,10.30
2023-08-27T02:00:44.712Z,10.50
2023-08-27T02:03:11.759Z,11.10
2023-08-27T02:05:38.870Z,8.40
2023-08-27T02:08:06.186Z,8.80
2023-08-27T02:10:33.218Z,9.50
2023-08-27T02:13:00.463Z,10.40
2023-08-27T02:15:27.652Z,10.60
2023-08-27T02:17:54.639Z,9.90
2023-08-27T02:20:21.658Z,10.20
2023-08-27T02:22:48.763Z,8.10
2023-08-27T02:25:15.844Z,8.60
2023-08-27T02:27:42.823Z,9.70
2023-08-27T02:30:10.515Z,10.20
2023-08-27T02:32:37.703Z,10.70
2023-08-27T02:35:05.313Z,10.40
2023-08-27T02:37:32.372Z,11.00
2023-08-27T02:39:59.398Z,8.10
2023-08-27T02:42:26.402Z,8.90
2023-08-27T02:44:53.491Z,9.30
2023-08-27T02:47:20.568Z,9.50
2023-08-27T02:49:47.597Z,9.70
2023-08-27T02:52:16.019Z,10.00
2023-08-27T02:54:42.981Z,9.50
2023-08-27T02:57:10.218Z,6.80
2023-08-27T02:59:37.309Z,8.40
2023-08-27T03:02:04.552Z,10.60
2023-08-27T03:04:31.842Z,20.10
2023-08-27T03:06:58.908Z,21.60
2023-08-27T03:09:26.031Z,26.90
2023-08-27T03:11:52.966Z,26.40
2023-08-27T03:14:22.385Z,32.20
2023-08-27T03:16:49.442Z,36.00
2023-08-27T03:19:16.442Z,24.40
2023-08-27T03:21:43.543Z,22.80
2023-08-27T03:24:13.030Z,19.50
2023-08-27T03:26:40.080Z,13.90
2023-08-27T03:29:07.150Z,12.40
2023-08-27T03:31:34.411Z,9.60
2023-08-27T03:34:01.560Z,10.50
2023-08-27T03:36:29.534Z,9.80
2023-08-27T03:38:56.634Z,12.00
2023-08-27T03:41:23.769Z,12.60
2023-08-27T03:43:50.827Z,13.30
2023-08-27T03:46:17.913Z,12.10
2023-08-27T03:48:44.921Z,10.60
2023-08-27T03:51:14.208Z,11.60
2023-08-27T03:53:41.257Z,11.80
2023-08-27T03:56:08.238Z,14.20
2023-08-27T03:58:35.392Z,14.80
2023-08-27T04:01:02.492Z,16.00
2023-08-27T04:03:30.175Z,16.80
2023-08-27T04:05:57.520Z,13.70
2023-08-27T04:08:24.627Z,13.00
2023-08-27T04:10:57.562Z,14.30
2023-08-27T04:13:24.681Z,16.30
2023-08-27T04:16:01.807Z,17.60
2023-08-27T04:18:30.531Z,18.20
2023-08-27T04:20:57.473Z,21.20
2023-08-27T04:23:26.250Z,17.90
2023-08-27T04:25:53.458Z,14.80
2023-08-27T04:28:20.524Z,12.70
2023-08-27T04:30:51.572Z,12.90
2023-08-27T04:35:53.851Z,12.80
2023-08-27T04:38:21.854Z,12.50
2023-08-27T04:40:53.103Z,15.40
2023-08-27T04:43:20.658Z,19.00
2023-08-27T04:45:47.775Z,14.80
2023-08-27T04:48:16.095Z,15.70
2023-08-27T04:50:47.188Z,16.20
2023-08-27T04:53:14.307Z,18.10
2023-08-27T04:55:41.672Z,21.60
2023-08-27T04:58:09.838Z,16.10
2023-08-27T05:00:38.202Z,12.40
2023-08-27T05:03:05.559Z,12.30
2023-08-27T05:05:32.673Z,12.10
2023-08-27T05:08:00.008Z,11.50
2023-08-27T05:10:27.368Z,11.80
2023-08-27T05:12:55.412Z,11.20
2023-08-27T05:15:22.598Z,11.70
2023-08-27T05:17:50.092Z,9.80
2023-08-27T05:20:17.230Z,14.80
2023-08-27T05:22:44.297Z,13.90
2023-08-27T05:25:11.509Z,17.30
2023-08-27T05:27:45.191Z,40.70
2023-08-27T05:30:15.406Z,49.40
2023-08-27T05:32:44.673Z,46.00
2023-08-27T05:35:11.999Z,22.30
2023-08-27T05:37:39.247Z,16.40
2023-08-27T05:40:07.506Z,12.10
2023-08-27T05:42:36.035Z,11.30
2023-08-27T05:45:04.579Z,10.10
2023-08-27T05:47:32.373Z,10.20
2023-08-27T05:49:59.901Z,9.40
2023-08-27T05:52:27.555Z,9.50
2023-08-27T05:54:55.504Z,9.70
2023-08-27T05:57:23.239Z,8.30
2023-08-27T05:59:50.277Z,8.90
2023-08-27T06:02:18.766Z,9.70
2023-08-27T06:04:46.089Z,10.00
2023-08-27T06:07:13.391Z,10.70
2023-08-27T06:09:40.439Z,9.90
2023-08-27T06:12:07.996Z,10.20
2023-08-27T06:14:35.442Z,10.30
2023-08-27T06:17:02.557Z,10.40
2023-08-27T06:19:42.951Z,10.20
2023-08-27T06:22:15.185Z,10.40
2023-08-27T06:24:42.250Z,9.50
2023-08-27T06:27:09.449Z,9.50
2023-08-27T06:29:37.057Z,9.70
2023-08-27T06:32:04.312Z,10.30
2023-08-27T06:34:33.962Z,10.60
2023-08-27T06:37:00.995Z,11.40
2023-08-27T06:39:28.467Z,11.40
2023-08-27T06:41:55.529Z,9.60
2023-08-27T06:44:23.075Z,9.90
2023-08-27T06:46:54.301Z,10.90
2023-08-27T06:49:21.328Z,11.20
2023-08-27T06:51:48.360Z,10.70
2023-08-27T06:54:15.488Z,13.30
2023-08-27T06:56:42.531Z,11.70
2023-08-27T06:59:11.812Z,11.40
2023-08-27T07:01:40.893Z,11.70
2023-08-27T07:04:08.319Z,13.60
2023-08-27T07:06:35.533Z,12.10
2023-08-27T07:09:02.840Z,13.30
2023-08-27T07:11:30.162Z,13.50
2023-08-27T07:13:57.405Z,13.70
2023-08-27T07:16:24.511Z,17.50
2023-08-27T07:18:51.814Z,18.00
2023-08-27T07:21:19.118Z,13.50
2023-08-27T07:23:46.225Z,11.90
2023-08-27T07:26:13.334Z,11.50
2023-08-27T07:28:40.483Z,12.00
2023-08-27T07:31:07.520Z,11.10
2023-08-27T07:33:36.097Z,12.10
2023-08-27T07:36:03.646Z,11.60
2023-08-27T07:38:30.978Z,13.50
2023-08-27T07:40:58.031Z,11.50
2023-08-27T07:43:25.662Z,11.90
2023-08-27T07:45:52.630Z,10.50
2023-08-27T07:48:19.837Z,11.10
2023-08-27T07:50:48.459Z,11.50
2023-08-27T07:53:15.472Z,11.00
2023-08-27T07:55:42.475Z,11.40
2023-08-27T07:58:09.962Z,10.20
2023-08-27T08:00:38.405Z,11.20
2023-08-27T08:03:05.903Z,10.70
2023-08-27T08:05:33.127Z,10.80
2023-08-27T08:08:00.419Z,10.70
2023-08-27T08:10:27.660Z,11.60
2023-08-27T08:12:54.863Z,15.00
2023-08-27T08:15:22.061Z,10.60
2023-08-27T08:17:49.337Z,11.10
2023-08-27T08:20:16.519Z,10.90
2023-08-27T08:22:43.577Z,10.10
2023-08-27T08:25:10.543Z,10.40
2023-08-27T08:27:37.596Z,10.00
2023-08-27T08:30:05.591Z,10.20
2023-08-27T08:32:34.486Z,9.60
2023-08-27T08:35:02.547Z,9.80
2023-08-27T08:37:29.705Z,9.60
2023-08-27T08:39:56.781Z,9.60
2023-08-27T08:42:33.390Z,9.60
2023-08-27T08:45:14.841Z,9.40
2023-08-27T08:47:42.008Z,9.10
2023-08-27T08:50:09.562Z,9.00
2023-08-27T08:52:40.628Z,9.90
2023-08-27T08:55:09.034Z,9.00
2023-08-27T08:57:37.699Z,9.40
2023-08-27T09:00:05.021Z,8.80
2023-08-27T09:02:32.297Z,10.50
2023-08-27T09:04:59.351Z,10.00
2023-08-27T09:07:26.275Z,8.60
2023-08-27T09:09:53.339Z,9.00
2023-08-27T09:13:23.624Z,9.60
2023-08-27T09:15:50.987Z,9.20
2023-08-27T09:18:18.350Z,9.10
2023-08-27T09:20:45.405Z,9.20
2023-08-27T09:23:13.390Z,9.10
2023-08-27T09:25:42.762Z,9.00
2023-08-27T09:28:09.882Z,9.50
2023-08-27T09:30:36.908Z,9.90
2023-08-27T09:33:04.951Z,10.60
2023-08-27T09:35:39.165Z,10.20
2023-08-27T09:38:06.584Z,9.80
2023-08-27T09:40:33.692Z,9.30
2023-08-27T09:43:07.726Z,8.70
2023-08-27T09:45:35.571Z,10.80
2023-08-27T09:48:04.136Z,9.50
2023-08-27T09:50:32.434Z,12.20
2023-08-27T09:53:11.643Z,10.30
2023-08-27T09:55:38.677Z,9.70
2023-08-27T09:58:05.867Z,9.60
2023-08-27T10:00:33.687Z,9.10
2023-08-27T10:03:00.745Z,9.70
2023-08-27T10:05:29.805Z,9.60
2023-08-27T10:07:59.032Z,10.00
2023-08-27T10:10:28.062Z,11.20
2023-08-27T10:12:55.900Z,10.10
2023-08-27T10:15:24.338Z,9.40
2023-08-27T10:17:53.387Z,10.20
2023-08-27T10:20:21.075Z,11.70
2023-08-27T10:22:48.330Z,9.80
2023-08-27T10:25:19.002Z,9.00
2023-08-27T10:27:48.537Z,9.50
2023-08-27T10:30:17.082Z,10.00
2023-08-27T10:32:45.803Z,9.60
2023-08-27T10:35:12.871Z,9.60
2023-08-27T10:37:44.775Z,9.80
2023-08-27T10:40:13.543Z,10.10
2023-08-27T10:42:41.018Z,10.20
2023-08-27T10:45:13.078Z,9.60
2023-08-27T10:47:40.686Z,9.60
2023-08-27T10:50:08.298Z,9.70
2023-08-27T10:52:51.330Z,10.10
2023-08-27T10:55:22.376Z,10.10
2023-08-27T10:57:49.559Z,9.90
2023-08-27T11:00:16.827Z,10.30
2023-08-27T11:02:58.906Z,10.10
2023-08-27T11:05:28.088Z,10.30
2023-08-27T11:07:59.912Z,10.10
2023-08-27T11:10:32.266Z,10.00
2023-08-27T11:12:59.674Z,10.90
2023-08-27T11:15:33.042Z,9.40
2023-08-27T11:18:01.502Z,10.10
2023-08-27T11:20:29.128Z,9.20
2023-08-27T11:23:03.503Z,9.50
2023-08-27T11:25:31.550Z,9.20
2023-08-27T11:28:02.485Z,8.50
2023-08-27T11:30:31.262Z,8.00
2023-08-27T11:32:58.684Z,9.00
2023-08-27T11:35:28.809Z,9.20
2023-08-27T11:37:56.225Z,8.70
2023-08-27T11:40:28.228Z,9.00
2023-08-27T11:42:56.862Z,8.50
2023-08-27T11:45:36.244Z,8.50
2023-08-27T11:48:05.117Z,9.00
2023-08-27T11:50:34.190Z,9.20
2023-08-27T11:53:02.623Z,8.70
2023-08-27T11:55:29.958Z,8.50
2023-08-27T11:57:56.994Z,9.10
2023-08-27T12:00:24.064Z,8.40
2023-08-27T12:02:51.247Z,7.60
2023-08-27T12:05:18.697Z,7.70
2023-08-27T12:07:45.667Z,8.80
2023-08-27T12:10:15.003Z,7.20
2023-08-27T12:12:42.891Z,7.50
2023-08-27T12:15:10.301Z,7.50
2023-08-27T12:17:37.841Z,7.60
2023-08-27T12:20:07.013Z,7.70
2023-08-27T12:22:44.514Z,7.80
2023-08-27T12:25:13.331Z,7.80
2023-08-27T12:27:43.677Z,7.20
2023-08-27T12:32:41.616Z,7.40
2023-08-27T12:35:09.179Z,7.00
2023-08-27T12:37:36.301Z,7.20
2023-08-27T12:40:03.883Z,7.60
2023-08-27T12:42:31.137Z,6.80
2023-08-27T12:44:58.212Z,7.00
2023-08-27T12:47:25.219Z,7.90
2023-08-27T12:49:52.431Z,8.50
2023-08-27T12:52:20.708Z,6.90
2023-08-27T12:54:48.442Z,7.10
2023-08-27T12:57:15.422Z,7.40
2023-08-27T12:59:42.512Z,10.00
2023-08-27T13:02:10.714Z,7.70
2023-08-27T13:04:37.969Z,10.20
2023-08-27T13:07:04.969Z,7.30
2023-08-27T13:09:32.145Z,6.90
2023-08-27T13:11:59.972Z,8.40
2023-08-27T13:14:26.946Z,8.20
2023-08-27T13:16:54.013Z,8.00
2023-08-27T13:19:21.114Z,7.50
2023-08-27T13:21:48.373Z,8.50
2023-08-27T13:24:15.480Z,8.40
2023-08-27T13:26:42.550Z,8.40
2023-08-27T13:29:09.675Z,8.10
2023-08-27T13:31:36.816Z,7.80
2023-08-27T13:34:04.422Z,7.70
2023-08-27T13:36:31.917Z,8.80
2023-08-27T13:38:59.902Z,7.00
2023-08-27T13:41:27.099Z,7.30
2023-08-27T13:43:54.076Z,7.50
2023-08-27T13:46:21.684Z,7.90
2023-08-27T13:48:48.843Z,7.80
2023-08-27T13:51:16.742Z,7.90
2023-08-27T13:53:43.898Z,7.80
2023-08-27T13:56:11.026Z,7.70
2023-08-27T13:58:39.009Z,7.50
2023-08-27T14:01:06.979Z,6.90
2023-08-27T14:03:34.373Z,6.70
2023-08-27T14:06:01.583Z,7.70
2023-08-27T14:08:30.152Z,7.10
2023-08-27T14:10:57.697Z,8.40
2023-08-27T14:13:24.768Z,8.10
2023-08-27T14:15:52.104Z,8.00
2023-08-27T14:18:19.800Z,7.80
2023-08-27T14:20:47.214Z,6.80
2023-08-27T14:23:14.318Z,6.60
2023-08-27T14:25:41.905Z,6.70
2023-08-27T14:28:08.995Z,6.50
2023-08-27T14:30:36.551Z,6.40
2023-08-27T14:33:04.112Z,6.50
2023-08-27T14:35:31.318Z,7.10
2023-08-27T14:37:58.357Z,6.40
2023-08-27T14:40:25.325Z,6.60
2023-08-27T14:42:52.403Z,7.70
2023-08-27T14:45:19.399Z,6.20
2023-08-27T14:47:46.519Z,6.70
2023-08-27T14:50:18.712Z,7.40
2023-08-27T14:52:47.126Z,7.10
2023-08-27T14:55:14.188Z,8.30
2023-08-27T14:57:41.287Z,7.10
2023-08-27T15:00:09.801Z,6.50
2023-08-27T15:02:37.261Z,10.30
2023-08-27T15:05:04.752Z,7.70
2023-08-27T15:07:31.875Z,7.20
2023-08-27T15:09:59.248Z,7.20
2023-08-27T15:12:26.237Z,9.00
2023-08-27T15:14:53.285Z,7.20
2023-08-27T15:17:20.933Z,7.00
2023-08-27T15:19:48.578Z,6.30
2023-08-27T15:22:15.701Z,6.70
2023-08-27T15:24:42.936Z,6.50
2023-08-27T15:27:09.917Z,7.60
2023-08-27T15:29:36.884Z,7.50
2023-08-27T15:32:05.785Z,7.50
2023-08-27T15:34:32.906Z,7.00
2023-08-27T15:36:59.908Z,7.00
2023-08-27T15:39:26.949Z,7.00
2023-08-27T15:41:54.054Z,7.10
2023-08-27T15:44:21.141Z,7.40
2023-08-27T15:46:48.372Z,7.60
2023-08-27T15:49:15.380Z,7.90
2023-08-27T15:51:42.340Z,7.80
2023-08-27T15:54:09.405Z,8.40
2023-08-27T15:56:36.926Z,8.00
2023-08-27T15:59:04.083Z,8.00
2023-08-27T16:01:31.233Z,8.30
2023-08-27T16:03:58.312Z,8.20
2023-08-27T16:06:25.573Z,8.10
2023-08-27T16:08:55.116Z,8.10
2023-08-27T16:11:23.105Z,8.80
2023-08-27T16:13:50.205Z,8.10
2023-08-27T16:16:17.283Z,8.10
2023-08-27T16:18:44.464Z,9.00
2023-08-27T16:21:13.447Z,8.70
2023-08-27T16:23:40.616Z,9.10
2023-08-27T16:26:07.962Z,9.20
2023-08-27T16:28:35.035Z,9.10
2023-08-27T16:31:02.226Z,8.40
2023-08-27T16:33:29.680Z,9.30
2023-08-27T16:35:56.689Z,9.10
2023-08-27T16:38:23.814Z,10.00
2023-08-27T16:40:50.939Z,9.50
2023-08-27T16:43:18.014Z,11.70
2023-08-27T16:45:50.912Z,10.00
2023-08-27T16:48:18.044Z,10.70
2023-08-27T16:50:45.128Z,10.10
2023-08-27T16:53:12.131Z,10.40
2023-08-27T16:55:39.299Z,11.70
2023-08-27T16:58:06.864Z,11.50
2023-08-27T17:00:33.944Z,11.20
2023-08-27T17:03:01.144Z,11.80
2023-08-27T17:05:28.400Z,11.30
2023-08-27T17:07:55.508Z,11.60
2023-08-27T17:10:22.701Z,11.10
2023-08-27T17:12:49.762Z,12.30
2023-08-27T17:15:16.889Z,11.60
2023-08-27T17:17:44.007Z,12.90
2023-08-27T17:20:11.441Z,12.30
2023-08-27T17:22:39.305Z,12.20
2023-08-27T17:25:07.152Z,14.20
2023-08-27T17:27:34.504Z,13.40
2023-08-27T17:30:01.927Z,13.70
2023-08-27T17:32:28.971Z,12.30
2023-08-27T17:34:56.000Z,12.30
2023-08-27T17:37:23.008Z,13.10
2023-08-27T17:39:51.305Z,13.10
2023-08-27T17:42:18.416Z,10.50
2023-08-27T17:44:45.468Z,11.20
2023-08-27T17:47:13.039Z,11.40
2023-08-27T17:49:41.796Z,11.40
2023-08-27T17:52:08.844Z,11.30
2023-08-27T17:54:35.859Z,11.40
2023-08-27T17:57:02.960Z,11.50
2023-08-27T17:59:30.400Z,12.60
2023-08-27T18:01:57.485Z,12.70
2023-08-27T18:04:24.877Z,12.90
2023-08-27T18:06:51.888Z,13.30
2023-08-27T18:09:19.106Z,13.10
2023-08-27T18:11:47.311Z,11.70
2023-08-27T18:14:14.341Z,11.40
2023-08-27T18:16:41.373Z,11.80
2023-08-27T18:19:09.733Z,13.50
2023-08-27T18:21:36.946Z,13.10
2023-08-27T18:24:04.203Z,13.10
2023-08-27T18:26:31.291Z,12.30
2023-08-27T18:28:58.442Z,13.60
2023-08-27T18:31:25.459Z,13.80
2023-08-27T18:33:52.545Z,14.10
2023-08-27T18:36:19.554Z,10.30
2023-08-27T18:38:46.652Z,10.90
2023-08-27T18:41:13.710Z,11.60
2023-08-27T18:43:40.683Z,11.30
2023-08-27T18:46:07.778Z,11.90
2023-08-27T18:48:34.906Z,11.30
2023-08-27T18:51:03.234Z,11.60
2023-08-27T18:53:30.298Z,11.30
2023-08-27T18:55:57.367Z,11.50
2023-08-27T18:58:24.435Z,8.90
2023-08-27T19:00:53.886Z,9.60
2023-08-27T19:03:21.165Z,10.60
2023-08-27T19:05:48.338Z,11.10
2023-08-27T19:08:15.411Z,10.90
2023-08-27T19:10:42.480Z,12.10
2023-08-27T19:13:12.320Z,11.90
2023-08-27T19:15:39.377Z,12.20
2023-08-27T19:18:06.555Z,12.40
2023-08-27T19:20:33.816Z,8.80
2023-08-27T19:23:00.829Z,10.60
2023-08-27T19:25:27.994Z,10.50
2023-08-27T19:27:55.343Z,11.60
2023-08-27T19:30:22.434Z,11.40
2023-08-27T19:32:49.773Z,11.40
2023-08-27T19:35:17.066Z,12.00
2023-08-27T19:37:44.218Z,12.10
2023-08-27T19:40:11.845Z,13.00
2023-08-27T19:42:40.836Z,10.30
2023-08-27T19:45:09.218Z,10.40
2023-08-27T19:47:36.404Z,10.30
2023-08-27T19:50:03.574Z,11.70
2023-08-27T19:52:30.947Z,11.30
2023-08-27T19:54:58.111Z,11.00
2023-08-27T19:57:25.218Z,11.30
2023-08-27T19:59:54.066Z,12.10
2023-08-27T20:02:22.395Z,8.60
2023-08-27T20:04:49.529Z,9.50
2023-08-27T20:07:16.633Z,9.90
2023-08-27T20:09:43.682Z,9.90
2023-08-27T20:12:10.791Z,10.40
2023-08-27T20:14:37.773Z,10.90
2023-08-27T20:17:04.819Z,11.50
2023-08-27T20:19:31.749Z,12.60
2023-08-27T20:21:58.746Z,9.70
2023-08-27T20:24:25.761Z,10.20
2023-08-27T20:26:53.089Z,11.20
2023-08-27T20:29:20.078Z,11.60
2023-08-27T20:31:47.136Z,11.50
2023-08-27T20:34:14.205Z,11.60
2023-08-27T20:36:41.356Z,12.00
2023-08-27T20:39:09.737Z,11.70
2023-08-27T20:41:36.931Z,9.00
2023-08-27T20:44:04.831Z,9.30
2023-08-27T20:46:31.925Z,10.10
2023-08-27T20:48:58.994Z,10.10
2023-08-27T20:51:25.962Z,10.70
2023-08-27T20:53:55.032Z,10.70
2023-08-27T20:56:22.296Z,11.60
2023-08-27T20:58:49.299Z,11.80
2023-08-27T21:01:16.355Z,9.20
2023-08-27T21:03:43.387Z,10.10
2023-08-27T21:06:10.406Z,10.60
2023-08-27T21:08:37.424Z,11.30
2023-08-27T21:11:09.345Z,11.10
2023-08-27T21:13:37.092Z,11.30
2023-08-27T21:16:04.380Z,12.30
2023-08-27T21:18:31.628Z,9.20
2023-08-27T21:20:58.640Z,10.00
2023-08-27T21:23:25.788Z,10.90
2023-08-27T21:25:52.895Z,10.60
2023-08-27T21:28:21.852Z,10.90
2023-08-27T21:30:49.331Z,11.50
2023-08-27T21:33:16.477Z,11.40
2023-08-27T21:35:43.641Z,8.50
2023-08-27T21:38:10.794Z,9.50
2023-08-27T21:40:39.856Z,10.50
2023-08-27T21:43:10.544Z,11.40
2023-08-27T21:45:37.822Z,12.10
2023-08-27T21:48:05.386Z,11.20
2023-08-27T21:50:32.616Z,11.70
2023-08-27T21:52:59.802Z,8.40
2023-08-27T21:55:27.064Z,10.00
2023-08-27T21:57:56.373Z,10.90
2023-08-27T22:00:23.779Z,11.90
2023-08-27T22:02:51.924Z,10.80
2023-08-27T22:05:19.216Z,11.60
2023-08-27T22:07:46.259Z,11.90
2023-08-27T22:10:13.570Z,9.10
2023-08-27T22:12:40.706Z,9.90
2023-08-27T22:16:23.670Z,10.40
2023-08-27T22:18:50.770Z,10.90
2023-08-27T22:21:17.797Z,10.60
2023-08-27T22:23:44.812Z,12.20
2023-08-27T22:26:11.800Z,11.80
2023-08-27T22:28:38.893Z,8.80
2023-08-27T22:31:06.112Z,9.30
2023-08-27T22:33:33.770Z,10.50
2023-08-27T22:36:00.749Z,11.10
2023-08-27T22:38:27.771Z,11.10
2023-08-27T22:40:54.778Z,9.90
2023-08-27T22:43:21.819Z,11.50
2023-08-27T22:45:49.562Z,8.80
2023-08-27T22:48:16.596Z,9.30
2023-08-27T22:50:43.680Z,9.60
2023-08-27T22:53:10.723Z,10.90
2023-08-27T22:55:40.952Z,11.20
2023-08-27T22:58:08.047Z,11.40
2023-08-27T23:00:35.129Z,12.10
2023-08-27T23:03:02.601Z,8.10
2023-08-27T23:05:30.373Z,10.10
2023-08-27T23:07:57.401Z,11.00
2023-08-27T23:10:24.506Z,9.10
2023-08-27T23:12:51.522Z,11.10
2023-08-27T23:15:18.489Z,11.40
2023-08-27T23:17:46.472Z,11.60
2023-08-27T23:20:13.511Z,8.40
2023-08-27T23:22:41.507Z,9.40
2023-08-27T23:25:08.889Z,10.00
2023-08-27T23:27:36.129Z,10.90
2023-08-27T23:30:04.275Z,11.10
2023-08-27T23:32:31.815Z,11.00
2023-08-27T23:34:58.920Z,11.60
2023-08-27T23:37:26.726Z,8.80
2023-08-27T23:39:53.765Z,9.20
2023-08-27T23:42:20.777Z,9.70
2023-08-27T23:44:59.332Z,10.40
2023-08-27T23:47:27.910Z,10.40
2023-08-27T23:49:54.946Z,10.90
2023-08-27T23:52:21.940Z,10.00
2023-08-27T23:54:48.962Z,11.50
2023-08-27T23:57:15.975Z,8.40
2023-08-27T23:59:43.049Z,9.60
